createdAt,value
2023-02-03T00:00:09.608Z,96501.50
2023-02-03T00:02:40.382Z,96499.31
2023-02-03T00:05:09.693Z,96495.69
2023-02-03T00:07:38.213Z,96501.94
2023-02-03T00:10:07.063Z,96503.38
2023-02-03T00:12:35.345Z,96503.63
2023-02-03T00:15:03.504Z,96497.16
2023-02-03T00:17:33.438Z,96494.94
2023-02-03T00:20:01.587Z,96485.84
2023-02-03T00:22:29.850Z,96476.50
2023-02-03T00:24:57.989Z,96476.50
2023-02-03T00:27:26.222Z,96479.75
2023-02-03T00:29:54.435Z,96472.47
2023-02-03T00:32:22.982Z,96474.91
2023-02-03T00:34:52.659Z,96471.47
2023-02-03T00:37:21.540Z,96475.53
2023-02-03T00:39:49.683Z,96474.31
2023-02-03T00:42:17.881Z,96466.22
2023-02-03T00:44:46.360Z,96463.59
2023-02-03T00:47:14.517Z,96473.94
2023-02-03T00:49:42.723Z,96462.59
2023-02-03T00:52:12.869Z,96456.53
2023-02-03T00:54:41.035Z,96462.22
2023-02-03T00:57:09.538Z,96455.13
2023-02-03T00:59:37.714Z,96453.69
2023-02-03T01:02:05.964Z,96453.50
2023-02-03T01:04:34.307Z,96458.22
2023-02-03T01:07:02.438Z,96448.50
2023-02-03T01:09:34.633Z,96451.94
2023-02-03T01:12:03.056Z,96443.41
2023-02-03T01:14:31.279Z,96442.22
2023-02-03T01:16:59.609Z,96435.31
2023-02-03T01:19:27.828Z,96438.97
2023-02-03T01:21:55.957Z,96422.97
2023-02-03T01:24:24.381Z,96416.88
2023-02-03T01:26:53.964Z,96418.31
2023-02-03T01:29:22.191Z,96415.50
2023-02-03T01:31:51.293Z,96418.56
2023-02-03T01:34:19.557Z,96407.81
2023-02-03T01:36:48.033Z,96406.63
2023-02-03T01:39:16.766Z,96398.09
2023-02-03T01:41:47.169Z,96396.25
2023-02-03T01:44:41.711Z,96406.19
2023-02-03T01:47:17.589Z,96403.97
2023-02-03T01:49:47.956Z,96394.81
2023-02-03T01:52:16.434Z,96401.34
2023-02-03T01:54:45.706Z,96392.19
2023-02-03T01:57:18.528Z,96382.66
2023-02-03T01:59:48.188Z,96388.34
2023-02-03T02:02:16.454Z,96384.50
2023-02-03T02:04:51.543Z,96383.69
2023-02-03T02:07:19.753Z,96377.59
2023-02-03T02:09:47.919Z,96379.03
2023-02-03T02:12:16.373Z,96364.03
2023-02-03T02:14:44.583Z,96358.13
2023-02-03T02:17:20.214Z,96359.94
2023-02-03T02:20:07.360Z,96369.09
2023-02-03T02:22:38.948Z,96368.28
2023-02-03T02:25:23.907Z,96379.25
2023-02-03T02:28:13.476Z,96377.44
2023-02-03T02:30:48.507Z,96361.41
2023-02-03T02:33:20.851Z,96369.94
2023-02-03T02:35:56.998Z,96360.78
2023-02-03T02:38:33.055Z,96366.88
2023-02-03T02:41:04.244Z,96380.88
2023-02-03T02:43:37.228Z,96363.00
2023-02-03T02:46:09.948Z,96375.00
2023-02-03T02:48:41.033Z,96382.72
2023-02-03T02:51:09.813Z,96374.56
2023-02-03T02:53:40.855Z,96384.13
2023-02-03T02:56:11.791Z,96381.28
2023-02-03T02:58:41.123Z,96378.84
2023-02-03T03:01:09.988Z,96384.13
2023-02-03T03:03:44.306Z,96378.44
2023-02-03T03:06:16.892Z,96377.41
2023-02-03T03:08:46.984Z,96360.78
2023-02-03T03:11:15.508Z,96371.75
2023-02-03T03:13:45.484Z,96366.25
2023-02-03T03:16:13.963Z,96375.00
2023-02-03T03:18:44.871Z,96362.81
2023-02-03T03:21:15.539Z,96383.09
2023-02-03T03:23:43.940Z,96378.44
2023-02-03T03:26:14.956Z,96385.53
2023-02-03T03:28:46.657Z,96374.59
2023-02-03T03:31:14.976Z,96382.69
2023-02-03T03:33:44.580Z,96378.22
2023-02-03T03:36:15.876Z,96364.81
2023-02-03T03:38:45.597Z,96372.13
2023-02-03T03:41:16.146Z,96352.44
2023-02-03T03:43:44.996Z,96345.50
2023-02-03T03:46:14.675Z,96352.00
2023-02-03T03:48:48.034Z,96351.38
2023-02-03T03:51:19.327Z,96348.94
2023-02-03T03:53:48.053Z,96344.69
2023-02-03T03:56:18.777Z,96347.72
2023-02-03T03:58:46.985Z,96337.00
2023-02-03T04:01:15.490Z,96340.63
2023-02-03T04:03:46.635Z,96339.66
2023-02-03T04:06:15.130Z,96333.31
2023-02-03T04:08:43.337Z,96310.56
2023-02-03T04:11:11.547Z,96300.59
2023-02-03T04:13:39.785Z,96290.84
2023-02-03T04:16:08.364Z,96277.84
2023-02-03T04:18:37.281Z,96289.59
2023-02-03T04:21:07.371Z,96283.72
2023-02-03T04:23:35.642Z,96283.13
2023-02-03T04:26:03.840Z,96274.19
2023-02-03T04:28:31.955Z,96273.31
2023-02-03T04:31:01.928Z,96281.66
2023-02-03T04:33:30.527Z,96280.03
2023-02-03T04:35:58.912Z,96290.41
2023-02-03T04:38:28.480Z,96296.09
2023-02-03T04:40:56.679Z,96304.22
2023-02-03T04:43:24.941Z,96307.88
2023-02-03T04:45:53.171Z,96303.19
2023-02-03T04:48:21.682Z,96299.75
2023-02-03T04:50:49.897Z,96309.91
2023-02-03T04:53:18.105Z,96304.63
2023-02-03T04:55:49.438Z,96301.41
2023-02-03T04:58:17.670Z,96298.72
2023-02-03T05:00:45.962Z,96304.63
2023-02-03T05:03:14.513Z,96291.03
2023-02-03T05:05:42.762Z,96293.03
2023-02-03T05:08:10.935Z,96308.91
2023-02-03T05:10:39.122Z,96299.72
2023-02-03T05:13:08.682Z,96303.19
2023-02-03T05:15:37.143Z,96305.03
2023-02-03T05:18:05.363Z,96297.31
2023-02-03T05:20:33.598Z,96300.56
2023-02-03T05:23:01.800Z,96291.63
2023-02-03T05:25:30.021Z,96295.03
2023-02-03T05:27:58.262Z,96289.56
2023-02-03T05:30:28.405Z,96290.38
2023-02-03T05:32:56.860Z,96277.56
2023-02-03T05:35:25.018Z,96276.94
2023-02-03T05:37:53.226Z,96270.44
2023-02-03T05:40:38.817Z,96278.97
2023-02-03T05:43:07.900Z,96262.31
2023-02-03T05:45:37.545Z,96267.03
2023-02-03T05:48:07.429Z,96280.84
2023-02-03T05:50:38.351Z,96267.81
2023-02-03T05:53:09.480Z,96260.69
2023-02-03T05:55:37.891Z,96265.56
2023-02-03T05:58:06.115Z,96268.00
2023-02-03T06:00:34.313Z,96255.00
2023-02-03T06:03:04.022Z,96259.06
2023-02-03T06:05:35.348Z,96265.94
2023-02-03T06:08:04.206Z,96259.63
2023-02-03T06:10:32.719Z,96259.63
2023-02-03T06:13:00.904Z,96259.44
2023-02-03T06:15:29.140Z,96259.44
2023-02-03T06:17:57.338Z,96264.34
2023-02-03T06:20:27.132Z,96234.06
2023-02-03T06:22:55.797Z,96238.31
2023-02-03T06:25:24.432Z,96249.50
2023-02-03T06:27:53.702Z,96247.88
2023-02-03T06:30:23.927Z,96243.63
2023-02-03T06:32:52.233Z,96235.44
2023-02-03T06:35:20.423Z,96233.66
2023-02-03T06:37:50.154Z,96233.41
2023-02-03T06:40:18.407Z,96226.28
2023-02-03T06:42:47.176Z,96233.66
2023-02-03T06:45:15.558Z,96223.03
2023-02-03T06:47:43.825Z,96220.00
2023-02-03T06:50:14.021Z,96205.16
2023-02-03T06:52:42.381Z,96214.72
2023-02-03T06:55:12.164Z,96214.66
2023-02-03T06:57:45.063Z,96216.91
2023-02-03T07:00:17.483Z,96210.63
2023-02-03T07:02:46.770Z,96208.59
2023-02-03T07:05:15.020Z,96205.34
2023-02-03T07:07:43.255Z,96207.94
2023-02-03T07:10:12.961Z,96212.22
2023-02-03T07:12:41.164Z,96204.69
2023-02-03T07:15:10.558Z,96207.13
2023-02-03T07:17:39.089Z,96218.09
2023-02-03T07:20:07.779Z,96210.44
2023-02-03T07:22:36.516Z,96214.25
2023-02-03T07:25:04.894Z,96206.50
2023-02-03T07:27:34.458Z,96210.34
2023-02-03T07:30:02.645Z,96206.94
2023-02-03T07:32:32.880Z,96209.75
2023-02-03T07:35:02.388Z,96200.56
2023-02-03T07:37:31.043Z,96208.25
2023-02-03T07:39:59.223Z,96208.09
2023-02-03T07:42:27.372Z,96190.78
2023-02-03T07:44:58.748Z,96208.09
2023-02-03T07:47:26.944Z,96217.03
2023-02-03T07:49:55.171Z,96219.69
2023-02-03T07:52:23.365Z,96209.72
2023-02-03T07:54:51.526Z,96203.59
2023-02-03T07:57:19.982Z,96192.00
2023-02-03T07:59:48.164Z,96198.94
2023-02-03T08:02:17.689Z,96183.81
2023-02-03T08:04:45.934Z,96187.09
2023-02-03T08:07:14.121Z,96178.53
2023-02-03T08:09:42.425Z,96170.00
2023-02-03T08:12:10.884Z,96156.97
2023-02-03T08:14:39.098Z,96152.91
2023-02-03T08:17:07.351Z,96151.59
2023-02-03T08:19:36.976Z,96158.13
2023-02-03T08:22:05.153Z,96154.66
2023-02-03T08:24:33.608Z,96153.97
2023-02-03T08:27:02.008Z,96150.16
2023-02-03T08:29:30.213Z,96153.84
2023-02-03T08:31:58.756Z,96159.59
2023-02-03T08:34:27.150Z,96150.66
2023-02-03T08:36:56.724Z,96159.34
2023-02-03T08:39:25.434Z,96163.00
2023-02-03T08:41:53.724Z,96162.34
2023-02-03T08:44:21.909Z,96160.25
2023-02-03T08:46:51.023Z,96156.56
2023-02-03T08:49:19.345Z,96162.91
2023-02-03T08:51:47.702Z,96165.97
2023-02-03T08:54:17.305Z,96166.78
2023-02-03T08:56:45.492Z,96169.78
2023-02-03T08:59:14.144Z,96171.69
2023-02-03T09:01:44.808Z,96142.97
2023-02-03T09:04:13.396Z,96138.84
2023-02-03T09:06:41.628Z,96125.69
2023-02-03T09:09:10.529Z,96119.59
2023-02-03T09:11:40.306Z,96134.88
2023-02-03T09:14:08.545Z,96131.88
2023-02-03T09:16:36.791Z,96123.47
2023-02-03T09:19:05.226Z,96118.44
2023-02-03T09:21:38.757Z,96130.03
2023-02-03T09:24:09.038Z,96129.81
2023-02-03T09:26:37.223Z,96124.28
2023-02-03T09:29:07.312Z,96119.06
2023-02-03T09:31:35.788Z,96107.84
2023-02-03T09:34:04.372Z,96105.22
2023-02-03T09:36:32.579Z,96108.50
2023-02-03T09:39:00.791Z,96104.00
2023-02-03T09:41:38.046Z,96093.16
2023-02-03T09:44:09.439Z,96095.81
2023-02-03T09:46:40.477Z,96088.69
2023-02-03T09:49:13.282Z,96085.59
2023-02-03T09:51:43.649Z,96072.97
2023-02-03T09:54:17.143Z,96088.47
2023-02-03T09:56:51.232Z,96065.59
2023-02-03T09:59:20.842Z,96073.94
2023-02-03T10:01:54.232Z,96068.22
2023-02-03T10:04:29.241Z,96068.44
2023-02-03T10:07:03.046Z,96063.72
2023-02-03T10:09:37.689Z,96052.56
2023-02-03T10:12:22.451Z,96048.41
2023-02-03T10:14:58.428Z,96037.13
2023-02-03T10:17:30.603Z,96037.31
2023-02-03T10:20:02.797Z,96039.75
2023-02-03T10:22:32.036Z,96038.38
2023-02-03T10:25:02.336Z,96018.25
2023-02-03T10:27:30.948Z,96028.22
2023-02-03T10:30:03.389Z,96019.06
2023-02-03T10:32:31.620Z,96034.47
2023-02-03T10:34:59.808Z,96035.50
2023-02-03T10:37:30.457Z,96015.50
2023-02-03T10:39:58.948Z,96013.69
2023-02-03T10:42:47.442Z,96009.19
2023-02-03T10:45:17.225Z,95987.22
2023-02-03T10:47:47.060Z,95990.50
2023-02-03T10:50:17.414Z,95993.16
2023-02-03T10:52:45.648Z,95979.13
2023-02-03T10:55:31.755Z,95985.59
2023-02-03T10:58:00.421Z,95978.31
2023-02-03T11:00:31.273Z,95984.19
2023-02-03T11:03:02.331Z,95975.81
2023-02-03T11:05:30.617Z,95962.81
2023-02-03T11:07:59.089Z,95973.47
2023-02-03T11:10:29.134Z,95966.69
2023-02-03T11:13:14.345Z,95955.47
2023-02-03T11:15:54.791Z,95941.44
2023-02-03T11:18:41.136Z,95941.22
2023-02-03T11:21:11.180Z,95928.41
2023-02-03T11:23:40.318Z,95904.97
2023-02-03T11:26:14.385Z,95895.09
2023-02-03T11:28:44.225Z,95877.75
2023-02-03T11:31:21.476Z,95870.16
2023-02-03T11:33:51.321Z,95869.34
2023-02-03T11:36:20.128Z,95856.56
2023-02-03T11:38:48.333Z,95853.13
2023-02-03T11:41:21.397Z,95858.63
2023-02-03T11:43:51.193Z,95866.56
2023-02-03T11:46:20.815Z,95857.47
2023-02-03T11:48:59.121Z,95867.81
2023-02-03T11:51:31.372Z,95869.22
2023-02-03T11:54:04.837Z,95875.91
2023-02-03T11:56:36.987Z,95878.84
2023-02-03T11:59:27.397Z,95881.28
2023-02-03T12:02:43.556Z,95893.38
2023-02-03T12:05:23.438Z,95885.44
2023-02-03T12:07:58.241Z,95891.75
2023-02-03T12:10:32.603Z,95878.97
2023-02-03T12:13:03.232Z,95878.59
2023-02-03T12:15:50.283Z,95874.84
2023-02-03T12:18:25.578Z,95868.25
2023-02-03T12:21:01.931Z,95867.19
2023-02-03T12:23:36.092Z,95864.97
2023-02-03T12:26:14.765Z,95862.97
2023-02-03T12:28:47.262Z,95851.94
2023-02-03T12:31:17.702Z,95854.97
2023-02-03T12:33:47.763Z,95833.47
2023-02-03T12:36:20.043Z,95836.69
2023-02-03T12:38:52.111Z,95847.94
2023-02-03T12:41:22.262Z,95849.66
2023-02-03T12:43:52.665Z,95844.63
2023-02-03T12:46:22.390Z,95841.97
2023-02-03T12:48:53.400Z,95841.84
2023-02-03T12:51:29.946Z,95840.69
2023-02-03T12:54:00.381Z,95844.53
2023-02-03T12:56:31.162Z,95852.31
2023-02-03T12:59:01.774Z,95866.25
2023-02-03T13:01:32.460Z,95858.69
2023-02-03T13:04:03.491Z,95856.59
2023-02-03T13:06:35.241Z,95878.22
2023-02-03T13:09:05.118Z,95872.34
2023-02-03T13:11:36.337Z,95874.63
2023-02-03T13:14:07.376Z,95874.19
2023-02-03T13:16:37.190Z,95874.50
2023-02-03T13:19:08.272Z,95866.69
2023-02-03T13:21:37.896Z,95875.38
2023-02-03T13:24:06.892Z,95878.78
2023-02-03T13:26:58.069Z,95871.31
2023-02-03T13:29:53.935Z,95871.53
2023-02-03T13:32:30.826Z,95867.31
2023-02-03T13:35:33.151Z,95845.44
2023-02-03T13:38:17.611Z,95821.94
2023-02-03T13:40:52.883Z,95806.78
2023-02-03T13:43:37.352Z,95797.69
2023-02-03T13:46:09.109Z,95799.06
2023-02-03T13:48:37.919Z,95808.03
2023-02-03T13:51:08.210Z,95810.56
2023-02-03T13:53:39.098Z,95815.63
2023-02-03T13:56:08.000Z,95822.91
2023-02-03T13:58:37.212Z,95820.81
2023-02-03T14:01:33.562Z,95826.34
2023-02-03T14:04:02.215Z,95833.22
2023-02-03T14:07:03.993Z,95839.91
2023-02-03T14:09:41.440Z,95826.00
2023-02-03T14:12:43.321Z,95831.97
2023-02-03T14:15:33.743Z,95837.84
2023-02-03T14:18:08.043Z,95823.72
2023-02-03T14:21:20.717Z,95847.41
2023-02-03T14:23:59.537Z,95849.28
2023-02-03T14:26:41.422Z,95867.94
2023-02-03T14:29:10.922Z,95890.25
2023-02-03T14:31:59.496Z,95947.16
2023-02-03T14:34:38.257Z,95900.47
2023-02-03T14:37:30.487Z,95923.50
2023-02-03T14:40:18.561Z,95912.31
2023-02-03T14:43:14.694Z,95920.03
2023-02-03T14:46:06.410Z,95927.09
2023-02-03T14:48:52.081Z,95916.28
2023-02-03T14:51:26.906Z,95930.56
2023-02-03T14:54:02.483Z,95932.84
2023-02-03T14:56:58.148Z,95946.88
2023-02-03T14:59:29.564Z,95936.88
2023-02-03T15:02:16.052Z,95941.16
2023-02-03T15:04:45.728Z,95946.31
2023-02-03T15:07:35.905Z,95941.47
2023-02-03T15:10:04.723Z,95923.28
2023-02-03T15:12:37.677Z,95923.44
2023-02-03T15:15:31.883Z,95962.00
2023-02-03T15:18:01.169Z,95953.47
2023-02-03T15:20:37.023Z,95953.13
2023-02-03T15:23:19.649Z,95942.41
2023-02-03T15:25:48.292Z,95944.69
2023-02-03T15:28:20.809Z,95948.28
2023-02-03T15:30:50.743Z,95944.25
2023-02-03T15:33:21.034Z,95943.88
2023-02-03T15:35:50.327Z,95950.53
2023-02-03T15:38:20.583Z,95968.50
2023-02-03T15:40:49.674Z,95965.84
2023-02-03T15:43:19.171Z,95970.19
2023-02-03T15:45:57.532Z,95972.72
2023-02-03T15:48:30.248Z,95978.66
2023-02-03T15:51:00.660Z,95979.53
2023-02-03T15:53:45.294Z,95982.50
2023-02-03T15:56:24.226Z,95993.28
2023-02-03T15:58:52.434Z,95990.97
2023-02-03T16:01:26.227Z,95987.34
2023-02-03T16:03:55.454Z,95989.44
2023-02-03T16:06:27.476Z,95996.69
2023-02-03T16:08:57.628Z,95987.13
2023-02-03T16:11:31.167Z,95999.03
2023-02-03T16:14:00.904Z,95999.03
2023-02-03T16:16:31.899Z,96001.16
2023-02-03T16:19:01.719Z,96001.53
2023-02-03T16:21:31.965Z,96008.09
2023-02-03T16:24:00.209Z,96001.03
2023-02-03T16:26:31.098Z,95996.19
2023-02-03T16:29:31.179Z,96010.44
2023-02-03T16:32:18.227Z,96007.19
2023-02-03T16:35:03.549Z,96006.56
2023-02-03T16:37:50.452Z,96021.84
2023-02-03T16:40:37.820Z,96026.31
2023-02-03T16:43:23.835Z,96030.50
2023-02-03T16:46:12.197Z,96036.91
2023-02-03T16:48:59.634Z,96022.03
2023-02-03T16:51:28.378Z,96018.75
2023-02-03T16:53:57.808Z,96020.88
2023-02-03T16:56:26.011Z,96028.44
2023-02-03T16:58:56.131Z,96032.72
2023-02-03T17:01:25.048Z,96033.75
2023-02-03T17:03:54.596Z,96038.59
2023-02-03T17:06:22.805Z,96037.19
2023-02-03T17:08:50.997Z,96042.28
2023-02-03T17:11:20.051Z,96051.16
2023-02-03T17:13:48.818Z,96047.03
2023-02-03T17:16:18.488Z,96056.41
2023-02-03T17:18:47.026Z,96042.56
2023-02-03T17:21:18.065Z,96031.59
2023-02-03T17:23:46.324Z,96054.31
2023-02-03T17:26:14.755Z,96042.34
2023-02-03T17:28:43.366Z,96043.72
2023-02-03T17:31:14.055Z,96041.59
2023-02-03T17:33:42.271Z,96051.22
2023-02-03T17:36:11.999Z,96053.66
2023-02-03T17:55:19.934Z,96070.34
2023-02-03T17:57:48.114Z,96077.69
2023-02-03T18:00:16.975Z,96078.22
2023-02-03T18:02:45.209Z,96080.94
2023-02-03T18:05:13.387Z,96093.13
2023-02-03T18:07:42.067Z,96099.50
2023-02-03T18:10:10.640Z,96107.38
2023-02-03T18:12:40.192Z,96118.91
2023-02-03T18:15:08.980Z,96117.50
2023-02-03T18:17:37.145Z,96125.09
2023-02-03T18:20:14.007Z,96129.41
2023-02-03T18:22:50.000Z,96131.84
2023-02-03T18:25:18.932Z,96117.81
2023-02-03T18:27:48.473Z,96127.78
2023-02-03T18:30:18.302Z,96134.13
2023-02-03T18:32:47.170Z,96133.53
2023-02-03T18:35:17.272Z,96133.16
2023-02-03T18:37:45.521Z,96133.16
2023-02-03T18:40:13.721Z,96143.13
2023-02-03T18:42:41.872Z,96149.63
2023-02-03T18:45:12.718Z,96154.50
2023-02-03T18:47:41.033Z,96156.00
2023-02-03T18:50:09.977Z,96168.19
2023-02-03T18:52:38.130Z,96171.66
2023-02-03T18:55:06.776Z,96167.75
2023-02-03T18:57:34.941Z,96178.09
2023-02-03T19:00:03.638Z,96174.13
2023-02-03T19:02:33.541Z,96177.72
2023-02-03T19:05:01.753Z,96180.97
2023-02-03T19:07:29.943Z,96178.53
2023-02-03T19:09:58.259Z,96185.66
2023-02-03T19:12:27.662Z,96196.69
2023-02-03T19:14:55.857Z,96201.59
2023-02-03T19:17:24.344Z,96210.19
2023-02-03T19:19:53.937Z,96212.22
2023-02-03T19:22:22.779Z,96209.94
2023-02-03T19:24:51.347Z,96214.06
2023-02-03T19:27:19.523Z,96221.00
2023-02-03T19:29:47.732Z,96229.16
2023-02-03T19:32:16.280Z,96236.84
2023-02-03T19:34:44.469Z,96236.84
2023-02-03T19:37:14.032Z,96242.28
2023-02-03T19:39:42.372Z,96244.13
2023-02-03T19:42:11.777Z,96238.88
2023-02-03T19:44:40.309Z,96239.28
2023-02-03T19:47:08.506Z,96240.91
2023-02-03T19:49:36.720Z,96259.63
2023-02-03T19:52:09.049Z,96254.31
2023-02-03T19:54:38.646Z,96255.16
2023-02-03T19:57:06.877Z,96264.34
2023-02-03T19:59:35.512Z,96268.59
2023-02-03T20:02:13.718Z,96263.06
2023-02-03T20:04:42.462Z,96259.41
2023-02-03T20:07:10.777Z,96264.31
2023-02-03T20:09:40.371Z,96265.13
2023-02-03T20:12:08.674Z,96267.34
2023-02-03T20:14:36.855Z,96267.97
2023-02-03T20:17:06.476Z,96265.53
2023-02-03T20:19:34.898Z,96254.59
2023-02-03T20:22:03.070Z,96259.63
2023-02-03T20:24:31.222Z,96253.31
2023-02-03T20:27:01.047Z,96256.97
2023-02-03T20:29:29.225Z,96255.34
2023-02-03T20:31:58.771Z,96263.28
2023-02-03T20:34:28.507Z,96264.91
2023-02-03T20:36:58.575Z,96267.16
2023-02-03T20:39:27.072Z,96255.81
2023-02-03T20:41:55.238Z,96261.31
2023-02-03T20:44:24.855Z,96263.56
2023-02-03T20:46:53.561Z,96256.63
2023-02-03T20:49:21.791Z,96274.13
2023-02-03T20:51:49.999Z,96270.22
2023-02-03T20:54:20.114Z,96266.59
2023-02-03T20:56:48.521Z,96277.78
2023-02-03T20:59:17.840Z,96265.31
2023-02-03T21:01:47.622Z,96268.81
2023-02-03T21:04:34.181Z,96265.78
2023-02-03T21:07:02.475Z,96301.78
2023-02-03T21:09:30.927Z,96269.41
2023-02-03T21:11:59.114Z,96275.94
2023-02-03T21:14:28.390Z,96276.53
2023-02-03T21:16:57.970Z,96263.88
2023-02-03T21:19:29.361Z,96270.41
2023-02-03T21:21:57.807Z,96262.25
2023-02-03T21:24:28.262Z,96258.00
2023-02-03T21:26:56.705Z,96254.31
2023-02-03T21:29:26.848Z,96252.25
2023-02-03T21:31:55.316Z,96251.69
2023-02-03T21:34:28.995Z,96261.59
2023-02-03T21:36:57.298Z,96254.69
2023-02-03T21:39:27.638Z,96250.06
2023-02-03T21:41:55.946Z,96251.03
2023-02-03T21:44:28.346Z,96233.53
2023-02-03T21:46:56.486Z,96255.34
2023-02-03T21:49:25.000Z,96255.72
2023-02-03T21:51:54.602Z,96261.44
2023-02-03T21:54:28.065Z,96269.97
2023-02-03T21:56:56.300Z,96258.97
2023-02-03T21:59:26.217Z,96270.13
2023-02-03T22:01:54.377Z,96288.72
2023-02-03T22:04:22.798Z,96278.97
2023-02-03T22:06:53.877Z,96270.88
2023-02-03T22:09:24.249Z,96277.16
2023-02-03T22:11:52.452Z,96272.28
2023-02-03T22:14:21.813Z,96281.69
2023-02-03T22:16:50.405Z,96294.06
2023-02-03T22:19:18.558Z,96299.53
2023-02-03T22:21:48.586Z,96293.03
2023-02-03T22:24:16.777Z,96294.88
2023-02-03T22:26:46.349Z,96308.69
2023-02-03T22:29:14.777Z,96295.06
2023-02-03T22:31:43.352Z,96299.53
2023-02-03T22:34:11.580Z,96297.75
2023-02-03T22:36:39.745Z,96311.78
2023-02-03T22:39:07.866Z,96321.34
2023-02-03T22:41:36.304Z,96300.97
2023-02-03T22:44:06.093Z,96316.03
2023-02-03T22:46:34.285Z,96317.66
2023-02-03T22:49:02.370Z,96323.13
2023-02-03T22:51:30.562Z,96339.00
2023-02-03T22:53:58.743Z,96323.75
2023-02-03T22:56:27.222Z,96335.94
2023-02-03T22:58:55.371Z,96331.25
2023-02-03T23:01:24.991Z,96339.97
2023-02-03T23:03:53.104Z,96350.56
2023-02-03T23:06:21.305Z,96352.41
2023-02-03T23:08:49.721Z,96356.28
2023-02-03T23:11:17.944Z,96356.28
2023-02-03T23:13:46.072Z,96354.66
2023-02-03T23:16:14.843Z,96356.50
2023-02-03T23:18:44.479Z,96373.97
2023-02-03T23:21:12.945Z,96369.91
2023-02-03T23:23:41.437Z,96373.16
2023-02-03T23:26:09.615Z,96368.72
2023-02-03T23:28:37.769Z,96399.84
2023-02-03T23:31:06.222Z,96391.31
2023-02-03T23:33:34.441Z,96377.88
2023-02-03T23:36:03.316Z,96381.16
2023-02-03T23:38:33.408Z,96397.03
2023-02-03T23:41:01.506Z,96391.53
2023-02-03T23:43:29.777Z,96399.88
2023-02-03T23:45:57.950Z,96389.13
2023-02-03T23:48:26.466Z,96422.47
2023-02-03T23:50:54.622Z,96416.38
2023-02-03T23:53:24.199Z,96427.38
2023-02-03T23:55:52.387Z,96417.19
2023-02-03T23:58:20.555Z,96422.88
